Time;durP1;ratioP1;P1;durP2;ratioP2;P2;SDS_P1;SDS_P2;PMS_P1;PMS_P2;Temp;Humidity;BMP_temperature;BMP_pressure;BME280_temperature;BME280_humidity;BME280_pressure;Samples;Min_cycle;Max_cycle;Signal;HPM_P1;HPM_P2
2022/12/16 00:01:59;;;;;;;10.70;9.60;;;16.20;45.80;;;;;;5054660;28;20190;-58
2022/12/16 00:04:24;;;;;;;10.38;9.27;;;16.20;45.80;;;;;;5054158;28;20194;-58
2022/12/16 00:06:50;;;;;;;10.80;9.57;;;16.20;45.80;;;;;;5054322;28;20556;-58
2022/12/16 00:09:16;;;;;;;11.95;9.48;;;16.20;45.80;;;;;;5053853;28;20182;-58
2022/12/16 00:11:41;;;;;;;12.88;9.45;;;16.20;45.80;;;;;;5053219;28;20179;-58
2022/12/16 00:14:07;;;;;;;9.85;8.82;;;16.10;45.80;;;;;;5054343;28;20249;-58
2022/12/16 00:16:32;;;;;;;10.52;9.45;;;16.10;45.70;;;;;;5053737;28;20253;-58
2022/12/16 00:18:58;;;;;;;11.55;9.52;;;16.00;45.70;;;;;;5054552;28;20175;-58
2022/12/16 00:21:28;;;;;;;10.10;9.00;;;16.00;45.80;;;;;;5054300;28;20704;-58
2022/12/16 00:23:54;;;;;;;10.43;9.27;;;16.00;45.80;;;;;;5053417;28;20703;-57
2022/12/16 00:26:19;;;;;;;10.18;9.18;;;16.00;45.70;;;;;;5054396;28;20267;-56
2022/12/16 00:28:45;;;;;;;11.25;10.05;;;16.00;45.70;;;;;;5054063;28;20246;-58
2022/12/16 00:31:10;;;;;;;10.23;9.23;;;16.00;45.80;;;;;;5053384;28;20592;-57
2022/12/16 00:33:36;;;;;;;10.50;9.40;;;16.00;45.80;;;;;;5053997;28;20706;-57
2022/12/16 00:36:02;;;;;;;10.35;9.35;;;15.90;45.70;;;;;;5054278;28;20183;-58
2022/12/16 00:38:27;;;;;;;10.20;9.20;;;15.90;45.70;;;;;;5053441;28;20179;-58
2022/12/16 00:40:53;;;;;;;9.98;8.98;;;15.90;45.70;;;;;;5053745;28;20302;-58
2022/12/16 00:43:19;;;;;;;10.45;9.40;;;15.90;45.80;;;;;;5054245;28;20213;-58
2022/12/16 00:45:44;;;;;;;10.23;9.23;;;15.80;45.70;;;;;;5052391;28;20187;-58
2022/12/16 00:48:10;;;;;;;10.55;9.45;;;15.80;45.80;;;;;;5054857;28;20171;-58
2022/12/16 00:50:35;;;;;;;10.20;9.27;;;15.80;45.80;;;;;;5053698;28;20563;-57
2022/12/16 00:53:01;;;;;;;10.55;9.55;;;15.80;45.80;;;;;;5053349;28;20550;-57
2022/12/16 00:55:27;;;;;;;10.90;9.80;;;15.80;45.70;;;;;;5054013;28;20656;-56
2022/12/16 00:57:52;;;;;;;9.75;8.77;;;15.80;45.70;;;;;;5053402;28;20171;-57
2022/12/16 01:00:18;;;;;;;10.63;9.63;;;15.70;45.70;;;;;;5052805;28;20218;-57
2022/12/16 01:02:45;;;;;;;10.55;9.63;;;15.70;45.60;;;;;;5053299;28;20182;-60
2022/12/16 01:05:12;;;;;;;10.45;9.50;;;15.70;45.70;;;;;;5053650;28;20179;-58
2022/12/16 01:07:37;;;;;;;10.15;9.25;;;15.70;45.70;;;;;;5052675;28;20540;-58
2022/12/16 01:10:04;;;;;;;10.32;9.15;;;15.60;45.70;;;;;;5053749;28;20171;-58
2022/12/16 01:12:29;;;;;;;10.13;9.13;;;15.70;45.70;;;;;;5053062;28;20641;-57
2022/12/16 01:14:55;;;;;;;9.80;8.93;;;15.60;45.80;;;;;;5053040;28;20171;-58
2022/12/16 01:17:20;;;;;;;9.88;8.88;;;15.60;45.80;;;;;;5053266;28;20206;-58
2022/12/16 01:19:46;;;;;;;11.15;10.00;;;15.60;45.70;;;;;;5052222;28;20191;-58
2022/12/16 01:22:12;;;;;;;10.07;9.07;;;15.60;45.60;;;;;;5053530;28;20193;-56
2022/12/16 01:24:38;;;;;;;10.82;9.30;;;15.50;45.60;;;;;;5053194;28;20179;-55
2022/12/16 01:27:03;;;;;;;9.88;8.90;;;15.60;45.70;;;;;;5052707;28;20590;-56
2022/12/16 01:29:29;;;;;;;9.73;8.73;;;15.60;45.70;;;;;;5053117;28;20629;-56
2022/12/16 01:31:54;;;;;;;10.00;9.00;;;15.50;45.60;;;;;;5053116;28;20187;-58
2022/12/16 01:34:20;;;;;;;10.57;9.50;;;15.50;45.60;;;;;;5052475;28;20657;-58
2022/12/16 01:36:45;;;;;;;10.80;9.77;;;15.50;45.60;;;;;;5052995;28;20707;-58
2022/12/16 01:39:11;;;;;;;9.77;8.88;;;15.50;45.60;;;;;;5052993;28;20655;-58
2022/12/16 01:41:37;;;;;;;12.98;9.50;;;15.50;45.60;;;;;;5052010;28;20214;-58
2022/12/16 01:44:19;;;;;;;10.10;9.10;;;15.40;45.60;;;;;;5053084;28;20622;-58
2022/12/16 01:46:49;;;;;;;10.35;9.35;;;15.50;45.70;;;;;;5052925;28;20189;-57
2022/12/16 01:49:29;;;;;;;9.57;8.65;;;15.40;45.60;;;;;;5052445;28;20249;-57
2022/12/16 01:51:56;;;;;;;10.38;9.05;;;15.40;45.70;;;;;;5052458;28;20650;-58
2022/12/16 01:54:24;;;;;;;10.52;9.50;;;15.40;45.60;;;;;;5051752;28;20179;-56
2022/12/16 01:56:59;;;;;;;10.57;9.57;;;15.40;45.60;;;;;;5050881;28;20179;-57
2022/12/16 01:59:26;;;;;;;10.60;9.05;;;15.40;45.60;;;;;;5051990;28;20171;-56
2022/12/16 02:01:52;;;;;;;10.13;9.05;;;15.40;45.60;;;;;;5050700;28;20245;-58
2022/12/16 02:04:17;;;;;;;10.50;9.45;;;15.40;45.70;;;;;;5053034;28;20566;-58
2022/12/16 02:06:43;;;;;;;10.10;9.05;;;15.30;45.70;;;;;;5052508;28;20179;-58
2022/12/16 02:09:09;;;;;;;10.15;8.75;;;15.30;45.60;;;;;;5051958;28;20175;-58
2022/12/16 02:11:45;;;;;;;10.13;9.13;;;15.40;45.60;;;;;;5035089;28;20178;-57
2022/12/16 02:14:14;;;;;;;10.35;9.35;;;15.30;45.60;;;;;;5052383;28;20230;-58
2022/12/16 02:17:04;;;;;;;10.02;9.02;;;15.30;45.60;;;;;;5051774;28;20266;-57
2022/12/16 02:19:55;;;;;;;9.00;8.20;;;15.30;45.60;;;;;;5051095;28;20179;-58
2022/12/16 02:22:45;;;;;;;11.27;10.02;;;15.30;45.60;;;;;;5052674;28;20577;-56
2022/12/16 02:25:48;;;;;;;10.40;9.40;;;15.30;45.60;;;;;;5051951;28;20175;-55
2022/12/16 02:28:47;;;;;;;10.05;9.10;;;15.30;45.70;;;;;;5052775;28;20197;-56
2022/12/16 02:31:41;;;;;;;10.98;9.77;;;15.20;46.30;;;;;;5051918;28;20175;-55
2022/12/16 02:34:13;;;;;;;9.88;8.98;;;15.20;45.60;;;;;;5044517;28;20266;-57
2022/12/16 02:36:50;;;;;;;9.95;8.93;;;15.20;45.60;;;;;;5052371;28;20171;-56
2022/12/16 02:39:24;;;;;;;9.57;8.65;;;15.20;45.60;;;;;;5050715;28;20202;-58
2022/12/16 02:42:05;;;;;;;10.35;9.35;;;15.20;46.30;;;;;;5050956;28;20214;-58
2022/12/16 02:44:47;;;;;;;10.77;9.73;;;15.20;45.70;;;;;;5050213;28;20176;-57
2022/12/16 02:47:13;;;;;;;9.20;8.30;;;15.10;45.60;;;;;;5051317;28;20590;-58
2022/12/16 02:49:45;;;;;;;10.18;9.02;;;15.10;45.70;;;;;;5052199;28;20175;-57
2022/12/16 02:52:10;;;;;;;10.40;9.40;;;15.10;45.60;;;;;;5051865;28;20588;-56
2022/12/16 02:54:36;;;;;;;9.82;8.93;;;15.10;45.60;;;;;;5052133;28;20691;-56
2022/12/16 02:57:20;;;;;;;9.98;8.98;;;15.10;45.70;;;;;;5051094;28;20222;-56
2022/12/16 03:00:08;;;;;;;9.93;8.93;;;15.10;45.70;;;;;;5035666;28;20172;-57
2022/12/16 03:02:52;;;;;;;9.40;8.50;;;15.10;45.70;;;;;;5052179;28;20195;-57
2022/12/16 03:05:24;;;;;;;10.32;9.32;;;15.10;45.70;;;;;;5050359;28;20175;-61
2022/12/16 03:07:50;;;;;;;10.32;9.23;;;15.10;45.70;;;;;;5035110;28;20583;-58
2022/12/16 03:10:17;;;;;;;9.88;8.98;;;15.10;45.70;;;;;;5054322;28;20297;-57
2022/12/16 03:12:43;;;;;;;9.43;8.52;;;15.00;45.70;;;;;;5054705;28;20234;-57
2022/12/16 03:15:09;;;;;;;9.80;8.88;;;15.00;45.60;;;;;;5055725;28;20185;-57
2022/12/16 03:17:34;;;;;;;9.68;8.77;;;15.00;45.70;;;;;;5054119;28;20171;-57
2022/12/16 03:20:06;;;;;;;10.38;9.30;;;15.00;45.60;;;;;;5037023;28;20211;-58
2022/12/16 03:22:33;;;;;;;9.82;8.82;;;15.00;45.70;;;;;;5054383;28;20210;-57
2022/12/16 03:24:58;;;;;;;9.52;8.60;;;15.00;45.70;;;;;;5038121;28;20182;-55
2022/12/16 03:27:32;;;;;;;10.20;9.20;;;14.90;45.70;;;;;;5054802;28;20174;-55
2022/12/16 03:30:02;;;;;;;9.88;8.63;;;14.90;45.70;;;;;;5038818;28;20181;-57
2022/12/16 03:32:50;;;;;;;9.82;8.93;;;14.90;45.70;;;;;;5054098;28;20175;-57
2022/12/16 03:35:22;;;;;;;9.98;8.98;;;14.90;45.70;;;;;;5054814;28;20182;-57
2022/12/16 03:37:50;;;;;;;10.25;9.25;;;14.90;45.70;;;;;;5038014;28;20171;-57
2022/12/16 03:40:15;;;;;;;10.27;8.73;;;14.90;45.70;;;;;;5036883;28;20689;-57
2022/12/16 03:42:41;;;;;;;9.75;8.73;;;14.90;45.70;;;;;;5037097;28;20217;-57
2022/12/16 03:45:07;;;;;;;9.75;8.73;;;14.90;45.80;;;;;;5054062;28;20171;-56
2022/12/16 03:47:33;;;;;;;10.10;9.10;;;14.90;45.70;;;;;;5054250;28;20885;-57
2022/12/16 03:49:58;;;;;;;9.93;8.93;;;14.90;45.80;;;;;;5055108;28;20626;-57
2022/12/16 03:52:24;;;;;;;10.02;9.02;;;14.80;45.80;;;;;;5055049;28;20189;-57
2022/12/16 03:54:49;;;;;;;10.07;9.07;;;14.80;45.80;;;;;;5054033;28;20289;-55
2022/12/16 03:57:15;;;;;;;10.40;9.35;;;14.80;45.80;;;;;;5054909;28;20175;-54
2022/12/16 03:59:41;;;;;;;9.25;8.30;;;14.80;45.80;;;;;;5054352;28;20629;-57
2022/12/16 04:02:07;;;;;;;9.60;8.65;;;14.80;45.90;;;;;;5054149;28;20222;-57
2022/12/16 04:04:32;;;;;;;10.15;9.13;;;14.80;46.00;;;;;;5054363;28;20171;-57
2022/12/16 04:09:42;;;;;;;9.57;8.50;;;14.80;46.20;;;;;;5053664;28;20221;-58
2022/12/16 04:25:48;;;;;;;9.77;8.77;;;14.70;46.20;;;;;;5054140;28;20743;-54
2022/12/16 04:28:13;;;;;;;10.40;9.30;;;14.70;46.80;;;;;;5052823;28;20180;-56
2022/12/16 04:30:39;;;;;;;9.80;8.80;;;14.70;46.10;;;;;;5053368;28;20186;-57
